Latest Weather Observations for Wulungurru (Kintore)

IDD60801

Issued at 8:31 pm CST Monday 27 June 2016 (issued every 30 minutes, with the page automatically refreshed every 10 minutes)

About weather observations | Map of weather stations | Latest weather observations for NT | Other Formats
Station Details ID: 015664 Name: WALUNGURRU AIRPORT Lat: -23.27 Lon: 129.38 Height: 454.3 m
Data from the previous 72 hours. | See also: Recent months at Wulungurru (Kintore)
Date/Time
CST
Temp
°C
App
Temp
°C
Dew
Point
°C
Rel
Hum
%
Delta-T
°C
Wind Press
QNH
hPa
Press
MSL
hPa
Rain since
9am
mm
Dir  Spd
km/h
Gust
km/h
Spd
kts
Gust
kts
27/08:30pm 15.9 10.9 3.7 44 5.7 E 19 26 10 14 1021.7 - 0.0
27/08:00pm 16.0 10.9 4.1 45 5.7 ESE 20 28 11 15 1021.5 - 0.0
27/07:30pm 15.8 10.9 3.9 45 5.6 ESE 19 26 10 14 1021.2 - 0.0
27/07:00pm 15.9 11.4 4.3 46 5.5 E 17 24 9 13 1020.8 - 0.0
27/06:30pm 16.4 11.4 3.8 43 6.0 E 19 22 10 12 1020.6 - 0.0
27/06:00pm 17.2 11.5 3.1 39 6.6 E 22 30 12 16 1020.2 1019.9 0.0
27/05:30pm 18.0 12.3 3.1 37 7.1 E 22 28 12 15 1020.0 - 0.0
27/05:00pm 18.5 12.8 2.8 35 7.4 E 22 32 12 17 1019.7 - 0.0
27/04:30pm 18.5 12.9 3.2 36 7.3 E 22 30 12 16 1019.8 - 0.0
27/04:00pm 18.5 12.8 2.8 35 7.4 E 22 33 12 18 1019.8 - 0.0
27/03:30pm 18.5 12.5 3.2 36 7.3 E 24 32 13 17 1019.9 - 0.0
27/03:00pm 18.5 12.9 3.2 36 7.3 E 22 35 12 19 1020.1 1019.8 0.0
27/02:30pm 17.8 11.3 2.5 36 7.2 E 26 35 14 19 1020.4 - 0.0
27/02:00pm 17.8 11.7 2.9 37 7.0 E 24 33 13 18 1020.7 - 0.0
27/01:30pm 16.9 10.8 2.9 39 6.6 E 24 33 13 18 1021.4 - 0.0
27/01:00pm 16.8 11.3 4.2 43 6.1 E 22 33 12 18 1021.8 - 0.0
27/12:30pm 16.0 9.8 4.1 45 5.7 E 26 37 14 20 1022.5 - 0.0
27/12:00pm 15.1 8.0 3.3 45 5.5 E 30 39 16 21 1022.9 1022.7 0.0
27/11:30am 14.8 7.1 3.6 47 5.2 E 33 44 18 24 1023.5 - 0.0
27/11:00am 14.0 6.3 3.5 49 4.9 E 33 46 18 25 1023.7 - 0.0
27/10:30am 13.1 5.1 3.7 53 4.3 E 35 48 19 26 1023.8 - 0.0
27/10:00am 12.3 5.3 4.0 57 3.8 E 30 41 16 22 1024.0 - 0.0
27/09:30am 11.3 4.7 4.1 61 3.3 E 28 35 15 19 1023.7 - 0.0
27/09:00am 11.3 4.5 3.3 58 3.6 E 28 37 15 20 1023.2 1023.0 0.0
27/08:30am 11.5 3.8 2.3 53 4.1 E 32 43 17 23 1022.9 - 0.0
27/08:00am 11.0 3.2 2.6 56 3.7 E 33 54 18 29 1022.7 - 0.0
27/07:55am 11.0 3.1 2.3 55 3.8 E 33 54 18 29 1022.8 - 0.0
27/07:30am 11.2 2.5 2.2 54 4.0 E 37 52 20 28 1022.4 - 0.0
27/07:00am 10.5 3.4 3.3 61 3.2 ESE 30 43 16 23 1022.2 - 0.0
27/06:30am 10.1 3.0 3.6 64 2.9 ESE 30 39 16 21 1022.1 - 0.0
27/06:00am 10.4 2.9 3.4 62 3.1 ESE 32 44 17 24 1021.9 1021.6 0.0
27/05:30am 10.4 2.9 3.2 61 3.2 ESE 32 43 17 23 1021.8 - 0.0
27/05:00am 10.7 3.9 3.3 60 3.3 ESE 28 39 15 21 1021.7 - 0.0
27/04:30am 10.6 4.2 3.4 61 3.2 ESE 26 39 14 21 1021.7 - 0.0
27/04:00am 10.9 3.8 3.5 60 3.3 ESE 30 44 16 24 1021.6 - 0.0
27/03:30am 10.5 5.0 4.2 65 2.9 ESE 22 37 12 20 1021.7 - 0.0
27/03:00am 10.4 4.6 4.3 66 2.8 SE 24 32 13 17 1021.8 1021.5 0.0
27/02:30am 10.7 4.5 4.4 65 2.9 ESE 26 37 14 20 1022.1 - 0.0
27/02:00am 10.8 5.1 4.7 66 2.8 SE 24 41 13 22 1022.2 - 0.0
27/01:30am 10.7 5.5 5.3 69 2.5 SE 22 35 12 19 1022.3 - 0.0
27/01:00am 11.6 6.3 5.0 64 3.1 SE 22 35 12 19 1022.3 - 0.0
27/12:30am 12.6 6.9 4.8 59 3.7 ESE 24 33 13 18 1022.3 - 0.0
27/12:00am 12.7 7.8 5.1 60 3.6 ESE 20 28 11 15 1022.3 1022.0 0.0
 
Date/Time
CST
Temp
°C
App
Temp
°C
Dew
Point
°C
Rel
Hum
%
Delta-T
°C
Wind Press
QNH
hPa
Press
MSL
hPa
Rain since
9am
mm
Dir  Spd
km/h
Gust
km/h
Spd
kts
Gust
kts
26/11:30pm 12.4 7.8 5.8 64 3.2 SE 19 30 10 16 1022.1 - 0.0
26/11:00pm 11.7 8.4 6.2 69 2.7 SE 13 20 7 11 1021.9 - 0.0
26/10:30pm 11.7 7.6 6.0 68 2.7 SE 17 22 9 12 1021.6 - 0.0
26/10:00pm 11.7 7.6 6.4 70 2.6 SSE 17 20 9 11 1021.4 - 0.0
26/09:30pm 10.9 8.1 6.8 76 2.0 S 11 13 6 7 1021.3 - 0.0
26/09:00pm 10.4 8.0 6.9 79 1.7 S 9 13 5 7 1021.0 1020.8 0.0
26/08:30pm 11.2 9.3 6.7 74 2.2 S 6 7 3 4 1020.8 - 0.0
26/08:00pm 11.3 8.4 6.6 73 2.3 S 11 15 6 8 1020.4 - 0.0
26/07:30pm 12.6 9.7 6.6 67 2.9 SSE 11 13 6 7 1020.3 - 0.0
26/07:00pm 13.1 10.2 6.5 64 3.2 SE 11 15 6 8 1020.0 - 0.0
26/06:30pm 14.3 10.5 5.9 57 4.1 SSE 15 20 8 11 1019.5 - 0.0
26/06:00pm 15.5 10.7 5.7 52 4.8 SSE 20 28 11 15 1018.9 1018.6 0.0
26/05:30pm 16.3 10.7 5.6 49 5.3 SSE 24 30 13 16 1018.4 - 0.0
26/05:00pm 16.9 11.8 6.1 49 5.4 S 22 32 12 17 1018.1 - 0.0
26/04:30pm 17.3 13.0 6.8 50 5.3 SSE 19 28 10 15 1017.9 - 0.0
26/04:00pm 17.2 12.7 7.0 51 5.2 SSE 20 28 11 15 1017.8 - 0.0
26/03:30pm 17.1 12.5 8.3 56 4.6 SSE 22 28 12 15 1017.8 - 0.0
26/03:00pm 16.8 12.7 8.5 58 4.3 SSE 20 30 11 16 1017.9 1017.6 0.0
26/02:30pm 16.9 13.1 9.8 63 3.8 SSE 20 32 11 17 1018.1 - 0.0
26/02:00pm 16.1 12.2 9.3 64 3.6 SSE 20 32 11 17 1018.2 - 0.0
26/01:30pm 16.3 11.8 10.2 67 3.3 S 24 33 13 18 1018.4 - 0.0
26/01:00pm 15.1 10.3 9.0 67 3.2 S 24 33 13 18 1019.0 - 0.0
26/12:30pm 15.0 10.7 9.4 69 3.0 S 22 35 12 19 1019.3 - 0.0
26/12:00pm 14.7 11.1 10.7 77 2.2 S 20 32 11 17 1019.4 1019.1 0.0
26/11:30am 14.4 9.7 10.6 78 2.0 S 26 33 14 18 1019.5 - 0.0
26/11:00am 13.4 9.5 10.8 84 1.4 S 22 32 12 17 1019.7 - 0.0
26/10:30am 12.8 9.1 11.5 92 0.7 S 22 30 12 16 1019.8 - 0.0
26/10:00am 12.3 8.9 11.2 93 0.6 S 20 30 11 16 1019.7 - 0.0
26/09:30am 12.6 9.0 11.7 94 0.5 S 22 35 12 19 1019.3 - 0.0
26/09:00am 12.8 9.2 12.0 95 0.4 SSW 22 30 12 16 1018.8 1018.5 9.2
26/08:30am 12.9 8.6 12.1 95 0.4 S 26 33 14 18 1018.5 - 9.2
26/08:00am 13.4 10.6 12.6 95 0.4 S 19 33 10 18 1017.8 - 9.2
26/07:30am 14.0 11.8 13.4 96 0.3 SSW 17 24 9 13 1017.4 - 9.2
26/07:00am 14.1 11.7 13.9 99 0.1 S 19 26 10 14 1016.9 - 9.2
26/06:30am 13.9 12.7 13.9 100 0.0 S 13 17 7 9 1016.2 - 9.2
26/06:00am 13.8 12.9 13.8 100 0.0 S 11 15 6 8 1016.1 1015.8 9.2
26/05:30am 13.7 12.8 13.7 100 0.0 S 11 13 6 7 1015.8 - 9.0
26/05:00am 13.7 12.8 13.7 100 0.0 S 11 13 6 7 1015.6 - 8.8
26/04:30am 13.7 13.5 13.7 100 0.0 SE 7 9 4 5 1015.8 - 8.6
26/04:00am 13.5 13.3 13.5 100 0.0 SE 7 9 4 5 1015.9 - 8.2
26/03:30am 13.3 11.9 13.3 100 0.0 S 13 17 7 9 1016.1 - 7.2
26/03:00am 13.3 12.3 13.3 100 0.0 SSE 11 17 6 9 1016.2 1015.9 5.2
26/02:30am 13.4 11.2 13.4 100 0.0 SE 17 24 9 13 1015.7 - 3.8
26/02:00am 13.8 11.8 13.8 100 0.0 SE 17 24 9 13 1015.7 - 2.8
26/01:30am 13.3 10.4 13.0 98 0.2 SSE 20 28 11 15 1016.0 - 1.0
26/01:00am 13.4 9.7 12.8 96 0.3 SSE 24 33 13 18 1015.5 - 0.4
26/12:30am 13.4 9.8 12.9 97 0.3 SSE 24 32 13 17 1015.9 - 0.4
26/12:00am 13.5 9.4 12.6 94 0.5 SSE 26 37 14 20 1016.1 1015.8 0.2
 
Date/Time
CST
Temp
°C
App
Temp
°C
Dew
Point
°C
Rel
Hum
%
Delta-T
°C
Wind Press
QNH
hPa
Press
MSL
hPa
Rain since
9am
mm
Dir  Spd
km/h
Gust
km/h
Spd
kts
Gust
kts
25/11:30pm 13.9 7.8 11.9 88 1.1 SSE 35 48 19 26 1015.6 - 0.2
25/11:00pm 14.1 8.2 12.3 89 1.0 SSE 35 46 19 25 1015.9 - 0.2
25/10:30pm 14.8 10.3 13.7 93 0.6 SSE 30 39 16 21 1016.0 - 0.2
25/10:00pm 15.5 11.2 14.5 94 0.6 SSE 30 39 16 21 1016.1 - 0.2
25/09:30pm 16.4 13.1 14.9 91 0.9 SSE 26 35 14 19 1016.0 - 0.0
25/09:00pm 17.2 13.0 13.5 79 2.1 SSE 28 39 15 21 1015.5 1015.2 0.0
25/08:30pm 18.0 14.0 12.9 72 2.9 S 26 35 14 19 1015.3 - 0.0
25/08:00pm 18.5 15.0 13.4 72 3.0 SSE 24 32 13 17 1014.6 - 0.0
25/07:30pm 19.2 15.4 12.5 65 3.8 SSE 24 33 13 18 1014.6 - 0.0
25/07:00pm 21.2 18.9 11.8 55 5.4 SSE 15 20 8 11 1013.4 - 0.0
25/06:30pm 22.5 21.4 10.0 45 6.9 SSW 6 7 3 4 1013.1 - 0.0
25/06:00pm 23.6 22.4 10.3 43 7.5 NNW 7 11 4 6 1012.6 1012.2 0.0
25/05:30pm 24.4 21.3 8.8 37 8.6 NNW 15 19 8 10 1012.9 - 0.0
25/05:00pm 24.2 21.3 8.2 36 8.7 NNW 13 20 7 11 1012.7 - 0.0
25/04:30pm 24.4 20.4 8.4 36 8.7 NNW 19 26 10 14 1012.8 - 0.0
25/04:00pm 25.0 21.4 8.5 35 9.1 N 17 24 9 13 1012.7 - 0.0
25/03:30pm 23.6 20.3 8.1 37 8.4 N 15 20 8 11 1012.8 - 0.0
25/03:00pm 23.3 19.7 8.2 38 8.2 N 17 24 9 13 1013.5 1013.2 0.0
25/02:30pm 22.2 19.1 8.7 42 7.3 N 15 20 8 11 1013.9 - 0.0
25/02:00pm 21.6 18.4 8.5 43 7.1 N 15 22 8 12 1014.7 - 0.0
25/01:30pm 21.4 18.3 8.7 44 6.9 N 15 24 8 13 1015.3 - 0.0
25/01:00pm 21.1 18.1 9.4 47 6.4 NNE 15 22 8 12 1016.0 - 0.0
25/12:30pm 20.4 17.0 9.0 48 6.2 NNE 17 24 9 13 1016.7 - 0.0
25/12:00pm 20.2 16.8 9.2 49 5.9 NE 17 22 9 12 1017.0 1016.7 0.0
25/11:30am 19.8 16.7 8.8 49 5.9 NE 15 20 8 11 1017.5 - 0.0
25/11:00am 20.2 16.8 9.2 49 6.0 NE 17 24 9 13 1017.7 - 0.0
25/10:30am 18.7 14.6 8.7 52 5.3 ENE 20 26 11 14 1017.5 - 0.0
25/10:00am 17.9 13.4 8.7 55 4.9 ENE 22 28 12 15 1017.9 - 0.0
25/09:30am 16.8 12.4 8.8 59 4.2 ENE 22 26 12 14 1018.2 - 0.0
25/09:00am 16.6 12.7 8.6 59 4.2 ENE 19 22 10 12 1018.3 1018.0 0.0
25/08:30am 15.8 12.2 8.5 62 3.8 E 17 24 9 13 1018.2 - 0.0
25/08:00am 15.4 11.4 8.4 63 3.6 ENE 19 24 10 13 1017.8 - 0.0
25/07:30am 15.3 11.7 8.5 64 3.5 E 17 22 9 12 1017.4 - 0.0
25/07:00am 15.4 12.2 8.6 64 3.5 ENE 15 20 8 11 1017.2 - 0.0
25/06:30am 15.5 11.6 8.7 64 3.5 ENE 19 24 10 13 1016.8 - 0.0
25/06:00am 15.5 12.7 8.7 64 3.5 E 13 19 7 10 1016.6 1016.2 0.0
25/05:30am 15.6 10.8 8.8 64 3.6 NE 24 32 13 17 1015.9 - 0.0
25/05:00am 15.7 11.0 9.1 65 3.5 ENE 24 30 13 16 1015.7 - 0.0
25/04:30am 15.7 10.7 9.4 66 3.3 NE 26 35 14 19 1015.7 - 0.0
25/04:00am 15.9 11.3 9.8 67 3.3 ENE 24 32 13 17 1015.9 - 0.0
25/03:30am 16.0 11.8 9.9 67 3.3 ENE 22 30 12 16 1016.5 - 0.0
25/03:00am 16.1 12.6 10.2 68 3.2 ENE 19 24 10 13 1016.9 1016.6 0.0
25/02:30am 16.1 14.2 10.6 70 3.0 E 11 19 6 10 1017.4 - 0.0
25/02:00am 16.2 13.6 10.7 70 3.0 E 15 22 8 12 1017.4 - 0.0
25/01:30am 16.3 13.5 11.2 72 2.8 E 17 22 9 12 1017.7 - 0.0
25/01:00am 16.4 14.3 11.3 72 2.8 E 13 20 7 11 1017.9 - 0.0
25/12:30am 16.6 14.7 11.7 73 2.7 E 13 20 7 11 1017.9 - 0.0
25/12:00am 16.8 14.5 11.7 72 2.8 E 15 20 8 11 1018.1 1017.8 0.0
 
Date/Time
CST
Temp
°C
App
Temp
°C
Dew
Point
°C
Rel
Hum
%
Delta-T
°C
Wind Press
QNH
hPa
Press
MSL
hPa
Rain since
9am
mm
Dir  Spd
km/h
Gust
km/h
Spd
kts
Gust
kts
24/11:30pm 17.0 14.0 11.9 72 2.9 E 19 24 10 13 1018.5 - 0.0
24/11:00pm 17.0 14.8 12.1 73 2.8 E 15 22 8 12 1018.2 - 0.0
24/10:30pm 17.2 14.9 11.9 71 3.0 E 15 26 8 14 1018.3 - 0.0
24/10:00pm 17.8 14.9 11.1 65 3.7 E 17 24 9 13 1018.4 - 0.0
24/09:30pm 18.2 14.9 11.0 63 4.0 E 19 26 10 14 1018.3 - 0.0
24/09:00pm 18.4 15.0 10.7 61 4.2 E 19 28 10 15 1018.4 1018.1 0.0

Other Formats:

Comma delimited format used in spreadsheet applications
http://www.bom.gov.au/fwo/IDD60801/IDD60801.94321.axf

JavaScript Object Notation format (JSON) in row-major order
http://www.bom.gov.au/fwo/IDD60801/IDD60801.94321.json